createdAt,value
2023-03-02T00:00:20.978Z,14.87
2023-03-02T00:02:51.414Z,15.87
2023-03-02T00:05:20.072Z,15.27
2023-03-02T00:07:48.583Z,16.80
2023-03-02T00:10:17.066Z,17.00
2023-03-02T00:12:45.545Z,17.73
2023-03-02T00:15:13.993Z,18.57
2023-03-02T00:17:42.591Z,19.37
2023-03-02T00:20:13.665Z,19.67
2023-03-02T00:22:42.749Z,20.00
2023-03-02T00:25:11.646Z,21.33
2023-03-02T00:27:40.227Z,22.17
2023-03-02T00:30:09.262Z,22.90
2023-03-02T00:32:37.714Z,22.90
2023-03-02T00:35:06.822Z,23.57
2023-03-02T00:37:37.757Z,24.47
2023-03-02T00:40:07.907Z,24.70
2023-03-02T00:42:36.659Z,25.03
2023-03-02T00:45:05.424Z,24.23
2023-03-02T00:47:35.157Z,24.50
2023-03-02T00:50:03.679Z,25.60
2023-03-02T00:52:32.325Z,25.97
2023-03-02T00:55:02.365Z,26.77
2023-03-02T00:57:31.242Z,26.10
2023-03-02T01:00:00.012Z,26.80
2023-03-02T01:02:28.812Z,27.53
2023-03-02T01:04:57.623Z,26.87
2023-03-02T01:07:28.702Z,27.27
2023-03-02T01:09:57.632Z,27.60
2023-03-02T01:12:28.948Z,28.23
2023-03-02T01:14:57.380Z,28.47
2023-03-02T01:17:26.094Z,27.50
2023-03-02T01:19:54.849Z,27.20
2023-03-02T01:22:23.439Z,28.67
2023-03-02T01:24:52.083Z,28.80
2023-03-02T01:27:20.596Z,28.47
2023-03-02T01:29:53.662Z,27.77
2023-03-02T01:32:22.179Z,28.27
2023-03-02T01:34:50.856Z,28.60
2023-03-02T01:37:26.023Z,28.57
2023-03-02T01:39:54.552Z,26.90
2023-03-02T01:42:22.934Z,27.67
2023-03-02T01:44:54.245Z,27.77
2023-03-02T01:47:23.686Z,27.67
2023-03-02T01:49:53.202Z,27.73
2023-03-02T01:52:23.115Z,28.23
2023-03-02T01:54:52.091Z,28.23
2023-03-02T01:57:22.531Z,27.93
2023-03-02T01:59:53.415Z,27.77
2023-03-02T02:02:22.046Z,28.27
2023-03-02T02:04:50.417Z,27.40
2023-03-02T02:07:18.905Z,27.90
2023-03-02T02:09:48.124Z,28.47
2023-03-02T02:12:16.920Z,28.17
2023-03-02T02:14:45.409Z,28.13
2023-03-02T02:17:15.246Z,27.70
2023-03-02T02:19:47.519Z,27.43
2023-03-02T02:22:16.452Z,27.40
2023-03-02T02:24:45.869Z,27.57
2023-03-02T02:27:15.638Z,27.40
2023-03-02T02:29:45.681Z,28.63
2023-03-02T02:32:15.459Z,27.60
2023-03-02T02:34:47.530Z,27.33
2023-03-02T02:37:17.547Z,26.17
2023-03-02T02:39:46.853Z,27.00
2023-03-02T02:42:17.172Z,26.27
2023-03-02T02:44:45.558Z,27.80
2023-03-02T02:47:16.638Z,25.60
2023-03-02T02:49:45.140Z,28.47
2023-03-02T02:52:14.928Z,27.80
2023-03-02T02:54:43.512Z,28.40
2023-03-02T02:57:11.940Z,28.70
2023-03-02T02:59:43.537Z,27.63
2023-03-02T03:02:12.537Z,28.23
2023-03-02T03:04:41.137Z,28.20
2023-03-02T03:07:09.671Z,28.17
2023-03-02T03:09:38.173Z,28.43
2023-03-02T03:12:10.298Z,28.17
2023-03-02T03:14:40.330Z,28.03
2023-03-02T03:17:13.298Z,28.07
2023-03-02T03:19:42.145Z,28.13
2023-03-02T03:22:12.005Z,29.40
2023-03-02T03:24:40.657Z,29.20
2023-03-02T03:27:09.234Z,27.70
2023-03-02T03:29:38.278Z,28.73
2023-03-02T03:32:07.185Z,28.03
2023-03-02T03:34:40.930Z,29.97
2023-03-02T03:37:09.824Z,27.90
2023-03-02T03:39:38.300Z,27.83
2023-03-02T03:42:06.765Z,29.13
2023-03-02T03:44:35.599Z,27.90
2023-03-02T03:47:04.333Z,28.03
2023-03-02T03:49:32.835Z,28.80
2023-03-02T03:52:03.600Z,28.23
2023-03-02T03:54:32.293Z,29.53
2023-03-02T03:57:00.731Z,28.07
2023-03-02T03:59:29.166Z,28.53
2023-03-02T04:01:58.509Z,27.40
2023-03-02T04:04:27.967Z,27.53
2023-03-02T04:06:56.437Z,28.93
2023-03-02T04:09:26.550Z,28.47
2023-03-02T04:11:55.668Z,26.67
2023-03-02T04:14:24.400Z,25.80
2023-03-02T04:16:52.930Z,26.73
2023-03-02T04:19:21.947Z,28.17
2023-03-02T04:21:50.976Z,28.00
2023-03-02T04:24:21.416Z,28.80
2023-03-02T04:26:51.414Z,26.83
2023-03-02T04:29:20.042Z,26.83
2023-03-02T04:31:49.358Z,27.67
2023-03-02T04:34:17.789Z,26.40
2023-03-02T04:36:46.435Z,28.17
2023-03-02T04:39:14.891Z,28.00
2023-03-02T04:41:43.288Z,27.17
2023-03-02T04:44:13.139Z,27.83
2023-03-02T04:46:44.412Z,26.40
2023-03-02T04:49:13.106Z,27.20
2023-03-02T04:51:42.216Z,26.93
2023-03-02T04:54:12.835Z,27.67
2023-03-02T04:56:41.268Z,26.13
2023-03-02T04:59:10.091Z,26.90
2023-03-02T05:01:41.393Z,26.87
2023-03-02T05:04:09.891Z,26.77
2023-03-02T05:06:38.443Z,26.53
2023-03-02T05:09:07.125Z,26.63
2023-03-02T05:11:35.871Z,25.23
2023-03-02T05:14:05.065Z,26.67
2023-03-02T05:16:34.706Z,25.93
2023-03-02T05:19:04.870Z,25.87
2023-03-02T05:21:33.354Z,26.20
2023-03-02T05:24:03.286Z,26.63
2023-03-02T05:26:32.253Z,25.03
2023-03-02T05:29:01.062Z,25.57
2023-03-02T05:31:30.254Z,24.33
2023-03-02T05:33:58.768Z,24.30
2023-03-02T05:36:28.536Z,25.87
2023-03-02T05:38:57.042Z,25.03
2023-03-02T05:41:25.506Z,24.77
2023-03-02T05:43:54.025Z,25.97
2023-03-02T05:46:22.642Z,25.73
2023-03-02T05:48:51.361Z,24.43
2023-03-02T05:51:19.835Z,25.07
2023-03-02T05:53:49.817Z,25.13
2023-03-02T05:56:20.510Z,26.27
2023-03-02T05:58:49.052Z,25.00
2023-03-02T06:01:17.560Z,25.93
2023-03-02T06:03:46.108Z,24.97
2023-03-02T06:06:14.933Z,24.27
2023-03-02T06:08:43.654Z,25.87
2023-03-02T06:11:13.445Z,25.13
2023-03-02T06:13:41.974Z,23.07
2023-03-02T06:16:10.543Z,24.03
2023-03-02T06:18:41.543Z,24.30
2023-03-02T06:21:10.143Z,24.60
2023-03-02T06:23:38.592Z,24.50
2023-03-02T06:26:09.512Z,24.77
2023-03-02T06:28:51.496Z,24.63
2023-03-02T06:31:20.860Z,23.80
2023-03-02T06:33:49.330Z,25.17
2023-03-02T06:36:18.365Z,23.60
2023-03-02T06:38:46.993Z,24.53
2023-03-02T06:41:15.508Z,23.60
2023-03-02T06:43:45.431Z,23.47
2023-03-02T06:46:14.000Z,23.70
2023-03-02T06:48:42.585Z,24.63
2023-03-02T06:51:13.008Z,24.80
2023-03-02T06:53:41.491Z,23.70
2023-03-02T06:56:10.071Z,23.43
2023-03-02T06:58:38.511Z,23.73
2023-03-02T07:01:09.000Z,23.37
2023-03-02T07:03:37.926Z,23.90
2023-03-02T07:06:06.702Z,22.97
2023-03-02T07:08:35.936Z,24.17
2023-03-02T07:11:06.519Z,23.13
2023-03-02T07:13:35.163Z,23.27
2023-03-02T07:16:08.735Z,22.60
2023-03-02T07:18:37.294Z,23.23
2023-03-02T07:21:13.243Z,23.17
2023-03-02T07:23:42.821Z,24.37
2023-03-02T07:26:14.640Z,24.30
2023-03-02T07:28:43.628Z,23.03
2023-03-02T07:31:16.635Z,23.17
2023-03-02T07:33:45.122Z,23.80
2023-03-02T07:36:13.701Z,24.77
2023-03-02T07:38:42.040Z,24.17
2023-03-02T07:41:11.129Z,24.20
2023-03-02T07:43:39.618Z,22.77
2023-03-02T07:46:08.762Z,23.60
2023-03-02T07:48:38.932Z,24.60
2023-03-02T07:51:07.857Z,23.47
2023-03-02T07:53:36.532Z,23.67
2023-03-02T07:56:08.246Z,24.30
2023-03-02T07:58:36.975Z,23.60
2023-03-02T08:01:11.506Z,22.50
2023-03-02T08:03:41.320Z,22.53
2023-03-02T08:06:10.567Z,23.97
2023-03-02T08:08:42.104Z,23.03
2023-03-02T08:11:11.044Z,23.77
2023-03-02T08:13:39.843Z,23.20
2023-03-02T08:16:09.086Z,22.50
2023-03-02T08:18:37.841Z,21.83
2023-03-02T08:21:10.573Z,22.60
2023-03-02T08:23:44.993Z,23.20
2023-03-02T08:26:15.844Z,23.10
2023-03-02T08:28:46.081Z,22.90
2023-03-02T08:31:14.535Z,23.00
2023-03-02T08:33:43.058Z,23.03
2023-03-02T08:36:14.784Z,22.90
2023-03-02T08:38:43.349Z,22.90
2023-03-02T08:41:12.834Z,22.57
2023-03-02T08:43:41.277Z,21.10
2023-03-02T08:46:10.514Z,23.00
2023-03-02T08:48:38.995Z,23.23
2023-03-02T08:51:08.423Z,21.43
2023-03-02T08:53:38.669Z,22.20
2023-03-02T08:56:08.604Z,22.90
2023-03-02T08:58:37.324Z,21.97
2023-03-02T09:01:05.848Z,20.97
2023-03-02T09:03:34.361Z,21.63
2023-03-02T09:06:02.773Z,20.97
2023-03-02T09:08:31.207Z,20.27
2023-03-02T09:11:01.284Z,20.60
2023-03-02T09:13:29.784Z,20.50
2023-03-02T09:16:01.970Z,20.03
2023-03-02T09:18:30.793Z,19.60
2023-03-02T09:21:05.496Z,19.00
2023-03-02T09:23:35.542Z,18.73
2023-03-02T09:26:05.424Z,19.10
2023-03-02T09:28:37.659Z,19.53
2023-03-02T09:31:15.594Z,19.37
2023-03-02T09:33:44.976Z,18.33
2023-03-02T09:36:13.908Z,18.23
2023-03-02T09:38:42.514Z,16.83
2023-03-02T09:41:35.423Z,16.07
2023-03-02T09:44:06.364Z,16.10
2023-03-02T09:46:35.781Z,15.50
2023-03-02T09:49:09.467Z,16.27
2023-03-02T09:51:39.307Z,15.00
2023-03-02T09:54:10.016Z,14.30
2023-03-02T09:56:39.142Z,15.43
2023-03-02T09:59:10.368Z,15.33
2023-03-02T10:01:40.436Z,14.93
2023-03-02T10:04:15.906Z,15.73
2023-03-02T10:06:44.370Z,14.40
2023-03-02T10:09:13.298Z,14.70
2023-03-02T10:11:45.828Z,13.90
2023-03-02T10:14:17.305Z,12.93
2023-03-02T10:16:48.522Z,13.77
2023-03-02T10:19:18.312Z,13.40
2023-03-02T10:21:48.374Z,14.03
2023-03-02T10:24:18.883Z,12.83
2023-03-02T10:26:49.106Z,12.70
2023-03-02T10:29:25.916Z,12.43
2023-03-02T10:31:55.880Z,13.47
2023-03-02T10:34:24.912Z,13.00
2023-03-02T10:36:54.127Z,12.33
2023-03-02T10:39:23.329Z,13.40
2023-03-02T10:41:53.017Z,13.70
2023-03-02T10:44:22.981Z,12.33
2023-03-02T10:46:53.949Z,13.30
2023-03-02T10:49:26.403Z,12.90
2023-03-02T10:51:59.109Z,12.97
2023-03-02T10:54:29.135Z,12.20
2023-03-02T10:56:58.196Z,12.27
2023-03-02T10:59:34.115Z,12.57
2023-03-02T11:02:04.401Z,12.27
2023-03-02T11:04:32.850Z,13.10
2023-03-02T11:07:09.340Z,13.13
2023-03-02T11:09:37.854Z,11.90
2023-03-02T11:12:06.830Z,12.17
2023-03-02T11:14:35.329Z,12.47
2023-03-02T11:17:06.403Z,12.23
2023-03-02T11:19:36.989Z,13.13
2023-03-02T11:22:07.793Z,12.57
2023-03-02T11:24:37.792Z,11.67
2023-03-02T11:27:08.046Z,12.40
2023-03-02T11:29:38.380Z,11.90
2023-03-02T11:32:11.036Z,11.87
2023-03-02T11:34:42.672Z,12.37
2023-03-02T11:37:18.350Z,12.57
2023-03-02T11:40:02.782Z,12.63
2023-03-02T11:42:31.913Z,12.00
2023-03-02T11:45:02.322Z,13.07
2023-03-02T11:47:32.157Z,13.70
2023-03-02T11:50:01.113Z,12.10
2023-03-02T11:52:30.520Z,13.37
2023-03-02T11:54:59.431Z,13.77
2023-03-02T11:57:30.131Z,12.10
2023-03-02T11:59:58.877Z,13.00
2023-03-02T12:02:27.530Z,13.50
2023-03-02T12:05:04.960Z,13.87
2023-03-02T12:07:33.541Z,13.77
2023-03-02T12:10:03.561Z,14.70
2023-03-02T12:12:36.179Z,13.77
2023-03-02T12:15:05.712Z,14.00
2023-03-02T12:17:35.201Z,13.57
2023-03-02T12:20:12.269Z,13.93
2023-03-02T12:22:41.565Z,13.97
2023-03-02T12:25:26.604Z,14.00
2023-03-02T12:27:55.552Z,14.20
2023-03-02T12:30:26.643Z,13.40
2023-03-02T12:33:02.873Z,13.23
2023-03-02T12:35:33.374Z,14.27
2023-03-02T12:38:02.659Z,12.60
2023-03-02T12:40:35.067Z,12.87
2023-03-02T12:43:21.282Z,12.57
2023-03-02T12:45:58.438Z,13.53
2023-03-02T12:48:29.208Z,13.10
2023-03-02T12:51:00.272Z,14.27
2023-03-02T12:53:31.894Z,14.60
2023-03-02T12:56:00.830Z,14.93
2023-03-02T12:58:33.725Z,14.37
2023-03-02T13:01:02.657Z,14.60
2023-03-02T13:03:32.123Z,14.27
2023-03-02T13:06:05.106Z,14.93
2023-03-02T13:08:36.907Z,14.40
2023-03-02T13:11:05.598Z,13.50
2023-03-02T13:13:37.121Z,14.50
2023-03-02T13:16:06.409Z,13.73
2023-03-02T13:18:35.614Z,13.53
2023-03-02T13:21:05.871Z,13.30
2023-03-02T13:23:34.986Z,14.37
2023-03-02T13:26:03.807Z,13.67
2023-03-02T13:28:34.026Z,13.97
2023-03-02T13:31:02.902Z,13.53
2023-03-02T13:33:31.609Z,14.63
2023-03-02T13:36:00.127Z,14.50
2023-03-02T13:38:31.333Z,14.27
2023-03-02T13:40:59.788Z,13.63
2023-03-02T13:43:38.527Z,13.37
2023-03-02T13:46:07.914Z,13.87
2023-03-02T13:48:36.483Z,13.80
2023-03-02T13:51:05.735Z,14.47
2023-03-02T13:53:38.159Z,13.77
2023-03-02T13:56:06.947Z,14.10
2023-03-02T13:58:38.287Z,13.23
2023-03-02T14:01:07.727Z,13.23
2023-03-02T14:03:36.336Z,13.30
2023-03-02T14:06:06.113Z,13.23
2023-03-02T14:08:36.050Z,12.53
2023-03-02T14:11:04.624Z,13.27
2023-03-02T14:13:35.745Z,14.30
2023-03-02T14:16:04.276Z,13.43
2023-03-02T14:18:34.456Z,14.33
2023-03-02T14:21:03.263Z,13.93
2023-03-02T14:23:32.083Z,13.23
2023-03-02T14:26:02.189Z,13.70
2023-03-02T14:28:35.688Z,14.23
2023-03-02T14:31:04.594Z,14.77
2023-03-02T14:33:33.206Z,14.17
2023-03-02T14:36:01.929Z,14.67
2023-03-02T14:38:39.708Z,14.13
2023-03-02T14:41:11.222Z,13.17
2023-03-02T14:43:39.778Z,13.50
2023-03-02T14:46:08.321Z,13.87
2023-03-02T14:48:36.900Z,15.30
2023-03-02T14:51:05.653Z,14.37
2023-03-02T14:53:34.989Z,13.57
2023-03-02T14:56:03.562Z,13.70
2023-03-02T14:58:34.418Z,13.83
2023-03-02T15:01:02.962Z,13.47
2023-03-02T15:03:31.933Z,14.10
2023-03-02T15:06:01.932Z,14.03
2023-03-02T15:08:33.453Z,15.33
2023-03-02T15:11:04.820Z,13.73
2023-03-02T15:13:34.671Z,12.87
2023-03-02T15:16:03.292Z,13.23
2023-03-02T15:18:31.867Z,13.00
2023-03-02T15:21:00.500Z,12.87
2023-03-02T15:23:28.999Z,14.33
2023-03-02T15:26:00.241Z,14.13
2023-03-02T15:28:28.774Z,15.03
2023-03-02T15:30:58.782Z,14.03
2023-03-02T15:33:30.437Z,14.00
2023-03-02T15:36:00.139Z,13.87
2023-03-02T15:38:28.746Z,14.80
2023-03-02T15:40:57.424Z,14.30
2023-03-02T15:43:25.902Z,12.83
2023-03-02T15:45:57.573Z,13.43
2023-03-02T15:48:27.580Z,12.40
2023-03-02T15:50:59.488Z,12.80
2023-03-02T15:53:28.266Z,12.80
2023-03-02T15:55:56.927Z,14.40
2023-03-02T15:58:25.500Z,13.30
2023-03-02T16:00:54.500Z,13.93
2023-03-02T16:03:24.334Z,13.10
2023-03-02T16:06:04.063Z,13.43
2023-03-02T16:08:33.022Z,12.27
2023-03-02T16:11:05.359Z,12.87
2023-03-02T16:13:34.054Z,13.00
2023-03-02T16:16:09.461Z,12.77
2023-03-02T16:18:38.200Z,13.03
2023-03-02T16:21:08.609Z,12.70
2023-03-02T16:23:38.030Z,12.47
2023-03-02T16:26:09.898Z,12.33
2023-03-02T16:28:38.814Z,13.37
2023-03-02T16:31:07.971Z,13.50
2023-03-02T16:33:46.132Z,13.43
2023-03-02T16:36:25.336Z,13.47
2023-03-02T16:39:03.686Z,12.77
2023-03-02T16:41:38.533Z,13.17
2023-03-02T16:44:07.337Z,13.50
2023-03-02T16:46:36.743Z,13.90
2023-03-02T16:49:05.823Z,13.67
2023-03-02T16:51:35.874Z,13.93
2023-03-02T16:54:04.399Z,15.13
2023-03-02T16:56:32.932Z,15.60
2023-03-02T16:59:01.419Z,14.83
2023-03-02T17:01:30.102Z,14.33
2023-03-02T17:03:58.705Z,14.73
2023-03-02T17:06:27.239Z,15.77
2023-03-02T17:08:57.404Z,15.87
2023-03-02T17:11:29.078Z,15.17
2023-03-02T17:13:57.697Z,15.60
2023-03-02T17:16:26.603Z,14.57
2023-03-02T17:18:55.294Z,15.00
2023-03-02T17:21:24.720Z,14.90
2023-03-02T17:23:53.310Z,16.17
2023-03-02T17:26:23.320Z,15.07
2023-03-02T17:28:51.839Z,15.70
2023-03-02T17:31:20.966Z,14.90
2023-03-02T17:33:49.871Z,15.40
2023-03-02T17:36:27.685Z,16.00
2023-03-02T17:38:56.319Z,14.33
2023-03-02T17:41:26.536Z,15.53
2023-03-02T17:43:54.959Z,15.70
2023-03-02T17:46:28.419Z,16.07
2023-03-02T17:48:57.481Z,14.93
2023-03-02T17:51:26.060Z,16.67
2023-03-02T17:53:54.642Z,15.50
2023-03-02T17:56:23.644Z,14.67
2023-03-02T17:58:55.166Z,14.90
2023-03-02T18:01:23.842Z,15.82
2023-03-02T18:03:52.703Z,15.33
2023-03-02T18:06:21.242Z,15.30
2023-03-02T18:08:50.238Z,15.90
2023-03-02T18:11:18.915Z,15.23
2023-03-02T18:13:47.499Z,15.80
2023-03-02T18:16:17.718Z,16.00
2023-03-02T18:18:46.559Z,15.57
2023-03-02T18:21:15.170Z,15.70
2023-03-02T18:23:44.838Z,15.83
2023-03-02T18:26:14.112Z,15.67
2023-03-02T18:28:42.700Z,15.63
2023-03-02T18:31:11.441Z,15.63
2023-03-02T18:33:41.546Z,15.60
2023-03-02T18:36:10.540Z,15.47
2023-03-02T18:38:39.367Z,14.67
2023-03-02T18:41:08.086Z,15.43
2023-03-02T18:43:37.625Z,16.10
2023-03-02T18:46:08.748Z,15.63
2023-03-02T18:48:37.753Z,16.93
2023-03-02T18:51:07.992Z,16.00
2023-03-02T18:53:38.368Z,16.17
2023-03-02T18:56:07.239Z,15.57
2023-03-02T18:58:35.909Z,15.43
2023-03-02T19:01:04.504Z,15.97
2023-03-02T19:03:35.140Z,15.87
2023-03-02T19:06:04.257Z,15.10
2023-03-02T19:08:35.498Z,14.83
2023-03-02T19:11:04.081Z,14.50
2023-03-02T19:13:37.581Z,15.20
2023-03-02T19:16:09.713Z,15.23
2023-03-02T19:18:38.993Z,14.70
2023-03-02T19:21:08.090Z,14.00
2023-03-02T19:23:38.478Z,13.87
2023-03-02T19:26:07.214Z,14.50
2023-03-02T19:28:40.266Z,14.00
2023-03-02T19:31:09.603Z,12.90
2023-03-02T19:33:40.042Z,13.93
2023-03-02T19:36:09.303Z,14.03
2023-03-02T19:38:41.612Z,14.77
2023-03-02T19:41:10.562Z,13.50
2023-03-02T19:43:40.521Z,14.40
2023-03-02T19:46:10.925Z,14.07
2023-03-02T19:48:39.489Z,13.80
2023-03-02T19:51:09.141Z,14.10
2023-03-02T19:53:40.309Z,14.10
2023-03-02T19:56:11.617Z,13.40
2023-03-02T19:58:47.164Z,13.57
2023-03-02T20:01:21.812Z,13.93
2023-03-02T20:03:51.821Z,13.30
2023-03-02T20:06:20.901Z,14.40
2023-03-02T20:08:50.965Z,14.20
2023-03-02T20:11:19.594Z,13.30
2023-03-02T20:13:50.738Z,14.63
2023-03-02T20:16:19.520Z,13.77
2023-03-02T20:18:48.439Z,13.70
2023-03-02T20:21:16.979Z,13.40
2023-03-02T20:23:49.134Z,12.47
2023-03-02T20:26:20.953Z,12.47
2023-03-02T20:28:49.753Z,12.63
2023-03-02T20:31:18.295Z,12.70
2023-03-02T20:33:49.261Z,12.67
2023-03-02T20:36:18.729Z,12.80
2023-03-02T20:38:48.072Z,12.30
2023-03-02T20:41:16.757Z,12.90
2023-03-02T20:43:49.225Z,13.30
2023-03-02T20:46:20.065Z,12.77
2023-03-02T20:48:48.609Z,12.77
2023-03-02T20:51:17.300Z,13.83
2023-03-02T20:53:47.204Z,12.90
2023-03-02T20:56:15.958Z,12.63
2023-03-02T20:58:47.009Z,13.40
2023-03-02T21:01:16.337Z,13.10
2023-03-02T21:03:45.173Z,13.97
2023-03-02T21:06:14.358Z,14.57
2023-03-02T21:08:43.041Z,12.67
2023-03-02T21:11:11.839Z,12.73
2023-03-02T21:13:46.061Z,12.87
2023-03-02T21:16:16.563Z,13.80
2023-03-02T21:18:45.326Z,12.37
2023-03-02T21:21:13.758Z,13.13
2023-03-02T21:23:42.640Z,12.27
2023-03-02T21:26:11.143Z,13.40
2023-03-02T21:28:44.028Z,12.80
2023-03-02T21:31:12.738Z,13.60
2023-03-02T21:33:44.452Z,14.10
2023-03-02T21:36:14.735Z,13.63
2023-03-02T21:38:44.002Z,12.60
2023-03-02T21:41:12.433Z,12.03
2023-03-02T21:43:41.065Z,12.63
2023-03-02T21:46:09.510Z,11.07
2023-03-02T21:48:38.206Z,12.53
2023-03-02T21:51:08.260Z,12.63
2023-03-02T21:53:36.839Z,11.90
2023-03-02T21:56:06.716Z,12.00
2023-03-02T21:58:35.338Z,10.97
2023-03-02T22:01:03.991Z,11.10
2023-03-02T22:03:32.663Z,11.47
2023-03-02T22:06:01.154Z,10.53
2023-03-02T22:08:31.611Z,11.03
2023-03-02T22:11:00.105Z,9.97
2023-03-02T22:13:28.923Z,10.47
2023-03-02T22:15:58.382Z,10.20
2023-03-02T22:18:27.743Z,10.50
2023-03-02T22:20:56.443Z,10.10
